Time;durP1;ratioP1;P1;durP2;ratioP2;P2;SDS_P1;SDS_P2;PMS_P1;PMS_P2;Temp;Humidity;BMP_temperature;BMP_pressure;BME280_temperature;BME280_humidity;BME280_pressure;Samples;Min_cycle;Max_cycle;Signal;HPM_P1;HPM_P2
2023/11/27 00:01:56;;;;;;;6.97;3.90;;;3.70;99.90;;;;;;5019872;28;20082;-81
2023/11/27 00:04:23;;;;;;;5.07;3.25;;;3.70;99.90;;;;;;5017273;28;20724;-79
2023/11/27 00:06:50;;;;;;;6.57;3.85;;;3.70;99.90;;;;;;5016656;28;20042;-80
2023/11/27 00:09:17;;;;;;;6.53;3.35;;;3.80;99.90;;;;;;5002841;28;20101;-80
2023/11/27 00:11:43;;;;;;;5.82;2.92;;;3.70;99.90;;;;;;5014159;28;20101;-79
2023/11/27 00:14:10;;;;;;;5.07;2.92;;;3.70;99.90;;;;;;5006878;28;20096;-80
2023/11/27 00:16:37;;;;;;;6.75;2.80;;;3.80;99.90;;;;;;5014307;28;20046;-81
2023/11/27 00:19:04;;;;;;;5.32;3.28;;;3.80;99.90;;;;;;5013088;28;20052;-81
2023/11/27 00:21:30;;;;;;;6.85;3.10;;;3.70;99.90;;;;;;5005644;28;20052;-81
2023/11/27 00:23:57;;;;;;;7.82;3.42;;;3.70;99.90;;;;;;5003282;28;20038;-80
2023/11/27 00:26:26;;;;;;;8.20;3.45;;;3.70;99.90;;;;;;5002480;28;20042;-80
2023/11/27 00:28:53;;;;;;;5.22;3.40;;;3.70;99.90;;;;;;4999469;28;20097;-80
2023/11/27 00:31:20;;;;;;;6.78;3.42;;;3.70;99.90;;;;;;5003892;28;20057;-80
2023/11/27 00:33:47;;;;;;;7.28;3.10;;;3.70;99.90;;;;;;5011530;28;20043;-81
2023/11/27 00:36:14;;;;;;;4.78;3.20;;;3.70;99.90;;;;;;5014043;28;20050;-81
2023/11/27 00:38:41;;;;;;;6.55;3.70;;;3.70;99.90;;;;;;5007030;28;20544;-80
2023/11/27 00:41:14;;;;;;;8.00;3.80;;;3.70;99.90;;;;;;5019218;28;20564;-79
2023/11/27 00:43:41;;;;;;;5.70;3.22;;;3.70;99.90;;;;;;5002016;28;20165;-80
2023/11/27 00:46:09;;;;;;;6.68;3.00;;;3.70;99.90;;;;;;5003900;28;20042;-80
2023/11/27 00:48:37;;;;;;;5.72;2.60;;;3.60;99.90;;;;;;5000952;28;20477;-80
2023/11/27 00:51:05;;;;;;;5.82;3.20;;;3.60;99.90;;;;;;5002679;28;20506;-80
2023/11/27 00:53:31;;;;;;;4.85;3.13;;;3.60;99.90;;;;;;5001572;28;20038;-81
2023/11/27 00:55:58;;;;;;;11.02;2.70;;;3.60;99.90;;;;;;5001867;28;20047;-80
2023/11/27 00:58:25;;;;;;;4.60;3.17;;;3.60;99.90;;;;;;5001828;28;20046;-81
2023/11/27 01:00:54;;;;;;;4.55;2.67;;;3.50;99.90;;;;;;5017344;28;20073;-79
2023/11/27 01:03:21;;;;;;;7.30;2.90;;;3.50;99.90;;;;;;5003571;28;20054;-80
2023/11/27 01:05:48;;;;;;;6.22;3.40;;;3.50;99.90;;;;;;5001654;28;20046;-80
2023/11/27 01:08:15;;;;;;;5.85;3.97;;;3.50;99.90;;;;;;5005015;28;20050;-80
2023/11/27 01:10:42;;;;;;;5.53;2.75;;;3.50;99.90;;;;;;5000497;28;20054;-81
2023/11/27 01:13:11;;;;;;;6.57;3.28;;;3.50;99.90;;;;;;5018888;28;20398;-80
2023/11/27 01:15:40;;;;;;;8.77;3.63;;;3.40;99.90;;;;;;5013069;28;20097;-81
2023/11/27 01:18:07;;;;;;;5.82;2.47;;;3.40;99.90;;;;;;5014671;28;20077;-80
2023/11/27 01:20:34;;;;;;;5.22;3.13;;;3.40;99.90;;;;;;5005449;28;20076;-80
2023/11/27 01:23:00;;;;;;;5.32;3.25;;;3.40;99.90;;;;;;5024152;28;20054;-80
2023/11/27 01:25:27;;;;;;;3.92;2.60;;;3.40;99.90;;;;;;5003519;28;20618;-80
2023/11/27 01:27:54;;;;;;;4.07;2.58;;;3.40;99.90;;;;;;5028496;28;20077;-80
2023/11/27 01:30:20;;;;;;;5.45;3.00;;;3.30;99.90;;;;;;5019368;28;20038;-81
2023/11/27 01:32:47;;;;;;;4.38;2.50;;;3.30;99.90;;;;;;5009602;28;20097;-80
2023/11/27 01:35:14;;;;;;;3.58;2.33;;;3.30;99.90;;;;;;5004693;28;20041;-80
2023/11/27 01:37:41;;;;;;;3.15;2.15;;;3.30;99.90;;;;;;5001090;28;20064;-80
2023/11/27 01:40:09;;;;;;;4.25;2.03;;;3.30;99.90;;;;;;5007471;28;20113;-79
2023/11/27 01:42:35;;;;;;;6.03;2.20;;;3.20;99.90;;;;;;5004404;28;20045;-80
2023/11/27 01:45:02;;;;;;;3.42;2.17;;;3.30;99.90;;;;;;5007302;28;20050;-79
2023/11/27 01:47:29;;;;;;;4.28;2.13;;;3.20;99.90;;;;;;5004047;28;20498;-79
2023/11/27 01:49:56;;;;;;;7.85;2.90;;;3.20;99.90;;;;;;5006954;28;20042;-80
2023/11/27 01:52:26;;;;;;;6.45;3.22;;;3.20;99.90;;;;;;4997787;28;20088;-80
2023/11/27 01:54:54;;;;;;;4.55;2.08;;;3.30;99.90;;;;;;5006897;28;20524;-78
2023/11/27 01:57:23;;;;;;;5.90;2.30;;;3.20;99.90;;;;;;5000693;28;20498;-81
2023/11/27 01:59:53;;;;;;;3.38;2.00;;;3.20;99.90;;;;;;5003542;28;20082;-80
2023/11/27 02:02:20;;;;;;;2.15;1.70;;;3.20;99.90;;;;;;5000799;28;20161;-80
2023/11/27 02:04:47;;;;;;;4.28;1.75;;;3.20;99.90;;;;;;5003521;28;20090;-80
2023/11/27 02:07:14;;;;;;;5.40;2.10;;;3.20;99.90;;;;;;5021924;28;20092;-80
2023/11/27 02:09:41;;;;;;;2.65;1.90;;;3.20;99.90;;;;;;5002811;28;20054;-79
2023/11/27 02:12:08;;;;;;;2.83;1.60;;;3.20;99.90;;;;;;5007506;28;20050;-80
2023/11/27 02:14:34;;;;;;;6.75;1.90;;;3.10;99.90;;;;;;5015821;28;20046;-81
2023/11/27 02:17:01;;;;;;;3.35;2.00;;;3.10;99.90;;;;;;5007953;28;20105;-80
2023/11/27 02:19:28;;;;;;;4.60;1.90;;;3.10;99.90;;;;;;5001615;28;20056;-80
2023/11/27 02:21:55;;;;;;;4.15;2.17;;;3.10;99.90;;;;;;5021794;28;20429;-79
2023/11/27 02:24:22;;;;;;;3.38;1.98;;;3.10;99.90;;;;;;5015473;28;20053;-80
2023/11/27 02:26:48;;;;;;;2.88;2.15;;;3.00;99.90;;;;;;5028031;28;20116;-80
2023/11/27 02:29:15;;;;;;;2.60;1.95;;;3.00;99.90;;;;;;5003903;28;20104;-80
2023/11/27 02:31:42;;;;;;;3.08;1.83;;;3.00;99.90;;;;;;5002325;28;20494;-80
2023/11/27 02:34:09;;;;;;;5.97;2.33;;;3.10;99.90;;;;;;5006498;28;20072;-79
2023/11/27 02:36:39;;;;;;;4.32;2.00;;;3.00;99.90;;;;;;5006203;28;20430;-80
2023/11/27 02:39:06;;;;;;;3.63;1.85;;;3.00;99.90;;;;;;5008145;28;20053;-79
2023/11/27 02:41:37;;;;;;;2.72;1.77;;;3.00;99.90;;;;;;5003787;28;20054;-81
2023/11/27 02:44:06;;;;;;;2.22;1.50;;;3.00;99.90;;;;;;5005660;28;20049;-80
2023/11/27 02:46:33;;;;;;;3.70;1.55;;;3.00;99.90;;;;;;4996824;28;20054;-80
2023/11/27 02:49:01;;;;;;;3.05;1.80;;;3.00;99.90;;;;;;5005535;28;20133;-80
2023/11/27 02:51:28;;;;;;;4.63;1.45;;;2.90;99.90;;;;;;5003164;28;20046;-80
2023/11/27 02:53:55;;;;;;;1.70;1.48;;;2.90;99.90;;;;;;5004973;28;20042;-80
2023/11/27 02:56:23;;;;;;;2.13;1.70;;;2.90;99.90;;;;;;5002860;28;20068;-81
2023/11/27 02:58:51;;;;;;;4.22;1.95;;;3.00;99.90;;;;;;5019881;28;20053;-80
2023/11/27 03:01:18;;;;;;;2.67;1.70;;;3.00;99.90;;;;;;5005841;28;20100;-80
2023/11/27 03:03:45;;;;;;;3.72;1.83;;;3.00;99.90;;;;;;5002491;28;20129;-80
2023/11/27 03:06:12;;;;;;;1.77;1.38;;;2.90;99.90;;;;;;5000792;28;20536;-80
2023/11/27 03:08:38;;;;;;;3.85;1.52;;;3.00;99.90;;;;;;5002452;28;20482;-80
2023/11/27 03:11:05;;;;;;;4.57;1.50;;;2.90;99.90;;;;;;5008141;28;20045;-81
2023/11/27 03:13:32;;;;;;;1.90;1.35;;;3.00;99.90;;;;;;5013589;28;20280;-80
2023/11/27 03:15:59;;;;;;;4.20;1.50;;;3.00;99.90;;;;;;5004083;28;20104;-80
2023/11/27 03:18:25;;;;;;;2.42;1.40;;;3.00;99.90;;;;;;5007431;28;20046;-80
2023/11/27 03:20:52;;;;;;;3.70;1.48;;;2.90;99.90;;;;;;5013153;28;20050;-79
2023/11/27 03:23:19;;;;;;;3.22;1.80;;;2.90;99.90;;;;;;5005999;28;20472;-80
2023/11/27 03:25:46;;;;;;;2.65;1.50;;;2.90;99.90;;;;;;5006170;28;20050;-81
2023/11/27 03:28:12;;;;;;;4.15;1.60;;;2.90;99.90;;;;;;5015704;28;20049;-81
2023/11/27 03:30:39;;;;;;;3.88;1.75;;;2.90;99.90;;;;;;5015412;28;20050;-82
2023/11/27 03:33:06;;;;;;;1.58;1.38;;;2.80;99.90;;;;;;5014557;28;20046;-81
2023/11/27 03:35:33;;;;;;;3.42;1.50;;;2.80;99.90;;;;;;5015298;28;20442;-81
2023/11/27 03:37:59;;;;;;;4.47;1.60;;;2.80;99.90;;;;;;5011890;28;20050;-80
2023/11/27 03:40:26;;;;;;;6.07;1.55;;;2.80;99.90;;;;;;5013132;28;20081;-81
2023/11/27 03:42:53;;;;;;;2.90;1.50;;;2.80;99.90;;;;;;5012861;28;20097;-80
2023/11/27 03:45:20;;;;;;;3.67;1.42;;;2.80;99.90;;;;;;5015081;28;20506;-81
2023/11/27 03:47:46;;;;;;;3.90;1.42;;;2.80;99.90;;;;;;5013581;28;20046;-81
2023/11/27 03:50:13;;;;;;;3.30;1.20;;;2.70;99.90;;;;;;5014845;28;20425;-82
2023/11/27 03:52:40;;;;;;;2.90;1.50;;;2.70;99.90;;;;;;5014946;28;20055;-82
2023/11/27 03:55:07;;;;;;;3.38;1.42;;;2.70;99.90;;;;;;5014904;28;20069;-80
2023/11/27 03:57:34;;;;;;;4.13;1.58;;;2.70;99.90;;;;;;5011767;28;20046;-80
2023/11/27 04:00:01;;;;;;;5.35;1.80;;;2.70;99.90;;;;;;5022696;28;20054;-80
2023/11/27 04:02:27;;;;;;;3.03;1.65;;;2.70;99.90;;;;;;5009432;28;20049;-80
2023/11/27 04:04:54;;;;;;;2.20;1.75;;;2.70;99.90;;;;;;5008925;28;20046;-80
2023/11/27 04:07:21;;;;;;;3.88;1.95;;;2.70;99.90;;;;;;5013837;28;20064;-81
2023/11/27 04:09:48;;;;;;;2.90;1.77;;;2.70;99.90;;;;;;5012976;28;20430;-81
2023/11/27 04:12:15;;;;;;;4.43;1.83;;;2.70;99.90;;;;;;5032244;28;20053;-80
2023/11/27 04:14:42;;;;;;;2.22;1.50;;;2.70;99.90;;;;;;5026601;28;20050;-78
2023/11/27 04:17:08;;;;;;;5.43;1.80;;;2.70;99.90;;;;;;5029321;28;20073;-81
2023/11/27 04:19:35;;;;;;;5.75;2.17;;;2.80;99.90;;;;;;5009890;28;20072;-80
2023/11/27 04:22:02;;;;;;;2.55;2.00;;;2.80;99.90;;;;;;5010844;28;20041;-80
2023/11/27 04:24:29;;;;;;;3.17;1.60;;;2.80;99.90;;;;;;5011414;28;20046;-81
2023/11/27 04:26:56;;;;;;;1.85;1.48;;;2.80;99.90;;;;;;5005173;28;20096;-79
2023/11/27 04:29:22;;;;;;;3.50;1.48;;;2.80;99.90;;;;;;5010363;28;20168;-79
2023/11/27 04:31:49;;;;;;;3.45;1.60;;;2.80;99.90;;;;;;5004509;28;20073;-80
2023/11/27 04:34:17;;;;;;;2.42;1.60;;;2.90;99.90;;;;;;5009322;28;20042;-79
2023/11/27 04:36:44;;;;;;;2.05;1.55;;;2.90;99.90;;;;;;5004003;28;20072;-81
2023/11/27 04:39:10;;;;;;;1.85;1.33;;;3.00;99.90;;;;;;5023818;28;20409;-79
2023/11/27 04:41:39;;;;;;;4.57;1.77;;;2.90;99.90;;;;;;5006361;28;20049;-79
2023/11/27 04:44:06;;;;;;;2.85;1.60;;;3.00;99.90;;;;;;5009097;28;20077;-79
2023/11/27 04:46:33;;;;;;;4.53;1.77;;;3.00;99.90;;;;;;5003622;28;20077;-80
2023/11/27 04:49:00;;;;;;;3.33;1.40;;;3.00;99.90;;;;;;5008398;28;20070;-79
2023/11/27 04:51:28;;;;;;;3.28;1.48;;;3.10;99.90;;;;;;5004854;28;20049;-78
2023/11/27 04:53:54;;;;;;;3.35;1.55;;;3.10;99.90;;;;;;5007942;28;20046;-80
2023/11/27 04:56:21;;;;;;;4.25;2.03;;;3.10;99.90;;;;;;5009086;28;20046;-80
2023/11/27 04:58:48;;;;;;;5.22;1.90;;;3.20;99.90;;;;;;5006420;28;20050;-80
2023/11/27 05:01:15;;;;;;;4.70;1.50;;;3.20;99.90;;;;;;5012240;28;20046;-79
2023/11/27 05:03:42;;;;;;;2.40;1.30;;;3.30;99.90;;;;;;5011462;28;20058;-78
2023/11/27 05:06:13;;;;;;;2.33;1.67;;;3.30;99.90;;;;;;5029833;28;20501;-80
2023/11/27 05:08:40;;;;;;;4.35;2.03;;;3.40;99.90;;;;;;5013207;28;20104;-80
2023/11/27 05:11:07;;;;;;;1.63;1.35;;;3.40;99.90;;;;;;5015647;28;20486;-81
2023/11/27 05:13:34;;;;;;;6.25;1.50;;;3.40;99.90;;;;;;5011453;28;20042;-80
2023/11/27 05:16:01;;;;;;;2.08;1.13;;;3.50;99.90;;;;;;5011249;28;20054;-80
2023/11/27 05:18:28;;;;;;;1.88;1.08;;;3.50;99.90;;;;;;5011179;28;20394;-80
2023/11/27 05:20:55;;;;;;;3.35;1.10;;;3.50;99.90;;;;;;5009095;28;20129;-81
2023/11/27 05:23:22;;;;;;;2.08;1.30;;;3.60;99.90;;;;;;5009393;28;20073;-80
2023/11/27 05:25:48;;;;;;;2.05;1.02;;;3.60;99.90;;;;;;5009405;28;20054;-80
2023/11/27 05:28:15;;;;;;;2.35;1.20;;;3.60;99.90;;;;;;5009001;28;20042;-80
2023/11/27 05:30:42;;;;;;;5.53;1.95;;;3.70;99.90;;;;;;5005159;28;20057;-80
2023/11/27 05:33:08;;;;;;;5.78;2.83;;;3.70;99.90;;;;;;5023006;28;20560;-80
2023/11/27 05:35:35;;;;;;;9.60;4.18;;;3.70;99.90;;;;;;5012229;28;20057;-81
2023/11/27 05:38:02;;;;;;;7.72;3.80;;;3.80;99.90;;;;;;5025051;28;20054;-80
2023/11/27 05:40:29;;;;;;;6.53;3.85;;;3.80;99.90;;;;;;5010455;28;20073;-79
2023/11/27 05:42:56;;;;;;;7.75;3.50;;;3.80;99.90;;;;;;5009036;28;20057;-79
2023/11/27 05:45:23;;;;;;;3.60;2.83;;;3.80;99.90;;;;;;5011105;28;20050;-79
2023/11/27 05:47:50;;;;;;;4.07;2.63;;;3.80;99.90;;;;;;5009836;28;20051;-79
2023/11/27 05:50:18;;;;;;;6.65;2.40;;;3.80;99.90;;;;;;5010133;28;20052;-80
2023/11/27 05:52:48;;;;;;;2.83;2.22;;;3.80;99.90;;;;;;5011016;28;20157;-80
2023/11/27 05:55:14;;;;;;;5.37;3.03;;;3.80;99.90;;;;;;5007992;28;20501;-81
2023/11/27 05:57:41;;;;;;;2.45;1.80;;;3.80;99.90;;;;;;5012229;28;20361;-81
2023/11/27 06:00:08;;;;;;;1.92;1.60;;;3.80;99.90;;;;;;5012104;28;20073;-81
2023/11/27 06:02:37;;;;;;;3.05;1.55;;;3.80;99.90;;;;;;5014794;28;20053;-81
2023/11/27 06:05:04;;;;;;;2.35;1.48;;;3.90;99.90;;;;;;5014915;28;20130;-80
2023/11/27 06:07:30;;;;;;;2.15;1.63;;;3.90;99.90;;;;;;5017597;28;20046;-82
2023/11/27 06:09:57;;;;;;;3.55;1.73;;;3.90;99.90;;;;;;5015715;28;20145;-81
2023/11/27 06:12:25;;;;;;;5.40;2.50;;;4.00;99.90;;;;;;5015576;28;20046;-80
2023/11/27 06:14:52;;;;;;;7.18;4.90;;;4.00;99.90;;;;;;5013907;28;20502;-81
2023/11/27 06:17:20;;;;;;;6.55;4.10;;;4.00;99.90;;;;;;5032572;28;20057;-82
2023/11/27 06:19:48;;;;;;;4.32;2.22;;;4.00;99.90;;;;;;5016687;28;20145;-82
2023/11/27 06:22:14;;;;;;;2.08;1.75;;;4.10;99.90;;;;;;5016030;28;20053;-81
2023/11/27 06:24:41;;;;;;;3.10;1.60;;;4.10;99.90;;;;;;5014018;28;20050;-80
2023/11/27 06:27:08;;;;;;;2.53;1.60;;;4.10;99.90;;;;;;5013556;28;20569;-80
2023/11/27 06:29:35;;;;;;;2.53;1.45;;;4.10;99.90;;;;;;5017564;28;20088;-80
2023/11/27 06:32:02;;;;;;;3.92;1.55;;;4.20;99.90;;;;;;5015659;28;20046;-81
2023/11/27 06:34:29;;;;;;;3.25;1.65;;;4.20;99.90;;;;;;5013146;28;20037;-81
2023/11/27 06:36:56;;;;;;;3.55;1.50;;;4.20;99.90;;;;;;5014211;28;20336;-80
2023/11/27 06:39:26;;;;;;;6.35;1.50;;;4.20;99.90;;;;;;5018656;28;20046;-81
2023/11/27 06:41:53;;;;;;;3.10;1.40;;;4.20;99.90;;;;;;5015817;28;20046;-79
2023/11/27 06:44:20;;;;;;;3.63;1.98;;;4.20;99.90;;;;;;5035078;28;20077;-81
2023/11/27 06:46:47;;;;;;;3.33;1.60;;;4.30;99.90;;;;;;5015979;28;20524;-79
2023/11/27 06:49:14;;;;;;;1.42;1.10;;;4.30;99.90;;;;;;5015461;28;20038;-80
2023/11/27 06:51:42;;;;;;;2.08;1.15;;;4.30;99.90;;;;;;5017155;28;20053;-80
2023/11/27 06:54:08;;;;;;;3.08;1.35;;;4.30;99.90;;;;;;5015606;28;20077;-81
2023/11/27 06:56:36;;;;;;;2.47;1.33;;;4.30;99.90;;;;;;5018610;28;20080;-81
2023/11/27 06:59:04;;;;;;;5.22;2.20;;;4.30;99.90;;;;;;5030084;28;20050;-80
2023/11/27 07:01:31;;;;;;;3.78;2.67;;;4.40;99.90;;;;;;5032574;28;20068;-80
2023/11/27 07:03:58;;;;;;;3.78;1.92;;;4.40;99.90;;;;;;5015176;28;20060;-81
2023/11/27 07:06:27;;;;;;;2.80;2.17;;;4.40;99.90;;;;;;5018377;28;20072;-80
2023/11/27 07:08:54;;;;;;;5.07;2.05;;;4.40;99.90;;;;;;5016242;28;20556;-80
2023/11/27 07:11:24;;;;;;;3.47;2.20;;;4.40;99.90;;;;;;5019962;28;20045;-81
2023/11/27 07:13:51;;;;;;;3.17;1.83;;;4.50;99.90;;;;;;5014307;28;20046;-80
2023/11/27 07:16:18;;;;;;;6.90;3.63;;;4.50;99.90;;;;;;5014015;28;20042;-78
2023/11/27 07:18:46;;;;;;;3.97;1.90;;;4.50;99.90;;;;;;5010881;28;20461;-80
2023/11/27 07:21:13;;;;;;;4.43;1.80;;;4.50;99.90;;;;;;5012816;28;20047;-80
2023/11/27 07:23:40;;;;;;;2.65;1.00;;;4.50;99.90;;;;;;5016544;28;20108;-81
2023/11/27 07:26:08;;;;;;;2.78;1.50;;;4.60;99.90;;;;;;5013076;28;20056;-80
2023/11/27 07:28:37;;;;;;;5.13;1.60;;;4.60;99.90;;;;;;5030625;28;20057;-81
2023/11/27 07:31:03;;;;;;;3.03;1.27;;;4.60;99.90;;;;;;5013178;28;20076;-80
2023/11/27 07:33:30;;;;;;;1.95;1.40;;;4.60;99.90;;;;;;5015366;28;20390;-81
2023/11/27 07:35:57;;;;;;;1.20;1.10;;;4.60;99.90;;;;;;5015733;28;20081;-80
2023/11/27 07:38:24;;;;;;;1.45;1.00;;;4.70;99.90;;;;;;5016384;28;20460;-80
2023/11/27 07:40:52;;;;;;;2.58;1.30;;;4.70;99.90;;;;;;5011262;28;20084;-81
2023/11/27 07:43:18;;;;;;;2.40;1.35;;;4.70;99.90;;;;;;5015062;28;20046;-81
2023/11/27 07:45:46;;;;;;;2.15;1.40;;;4.80;99.90;;;;;;5012721;28;20058;-80
2023/11/27 07:48:13;;;;;;;2.25;1.40;;;4.80;99.90;;;;;;5015793;28;20054;-81
2023/11/27 07:50:40;;;;;;;1.75;1.23;;;4.80;99.90;;;;;;5015667;28;20060;-81
2023/11/27 07:53:08;;;;;;;1.95;1.20;;;4.90;99.90;;;;;;5014428;28;20141;-80
2023/11/27 07:55:34;;;;;;;1.92;1.13;;;4.90;99.90;;;;;;5017651;28;20115;-80
2023/11/27 07:58:02;;;;;;;2.45;0.93;;;4.90;99.90;;;;;;5013375;28;20050;-81
2023/11/27 08:00:31;;;;;;;3.28;1.05;;;5.00;99.90;;;;;;5031559;28;20413;-80
2023/11/27 08:02:58;;;;;;;1.27;1.02;;;5.00;99.90;;;;;;5010853;28;20109;-80
2023/11/27 08:05:27;;;;;;;1.30;1.20;;;5.00;99.90;;;;;;5016657;28;20050;-81
2023/11/27 08:07:54;;;;;;;4.10;1.60;;;5.10;99.90;;;;;;5014299;28;20053;-80
2023/11/27 08:10:21;;;;;;;2.10;1.35;;;5.10;99.90;;;;;;5017163;28;20464;-80
2023/11/27 08:12:47;;;;;;;3.25;1.13;;;5.20;99.90;;;;;;5015151;28;20073;-82
2023/11/27 08:15:18;;;;;;;2.78;0.90;;;5.20;99.90;;;;;;5015791;28;20054;-81
2023/11/27 08:17:46;;;;;;;1.05;0.93;;;5.20;99.90;;;;;;5014909;28;20557;-81
2023/11/27 08:20:15;;;;;;;2.03;1.30;;;5.30;99.90;;;;;;5014990;28;20073;-80
2023/11/27 08:22:42;;;;;;;1.90;1.35;;;5.30;99.90;;;;;;5014460;28;20072;-82
2023/11/27 08:25:16;;;;;;;1.77;1.15;;;5.30;99.90;;;;;;5013960;28;20133;-81
2023/11/27 08:27:43;;;;;;;5.68;1.70;;;5.30;99.90;;;;;;5032248;28;20078;-82
2023/11/27 08:30:12;;;;;;;4.70;1.50;;;5.40;99.90;;;;;;5030243;28;20050;-81
2023/11/27 08:32:39;;;;;;;2.97;1.42;;;5.40;99.90;;;;;;5017995;28;20072;-80
2023/11/27 08:35:08;;;;;;;1.85;1.10;;;5.50;99.90;;;;;;5013939;28;20054;-80
2023/11/27 08:37:39;;;;;;;1.67;1.42;;;5.50;99.90;;;;;;5033303;28;20072;-81
2023/11/27 08:40:09;;;;;;;2.70;1.20;;;5.50;99.90;;;;;;5014981;28;20049;-80
2023/11/27 08:42:37;;;;;;;6.30;3.58;;;5.60;99.90;;;;;;5018517;28;20050;-81
2023/11/27 08:45:10;;;;;;;1.92;1.50;;;5.60;99.90;;;;;;5013016;28;20082;-79
2023/11/27 08:47:38;;;;;;;1.80;1.08;;;5.70;99.90;;;;;;5012824;28;20045;-81
2023/11/27 08:50:07;;;;;;;1.20;1.00;;;5.70;99.90;;;;;;5013025;28;20046;-80
2023/11/27 08:52:36;;;;;;;0.82;0.73;;;5.70;99.90;;;;;;5030063;28;20521;-80
2023/11/27 08:55:05;;;;;;;4.50;1.13;;;5.80;99.90;;;;;;5010590;28;20046;-80
2023/11/27 08:57:32;;;;;;;1.60;1.08;;;5.80;99.90;;;;;;5028753;28;20057;-78
2023/11/27 09:00:05;;;;;;;2.08;1.55;;;5.80;99.90;;;;;;5014479;28;20054;-81
2023/11/27 09:02:32;;;;;;;1.80;1.15;;;5.90;99.90;;;;;;5026759;28;20069;-80
2023/11/27 09:04:59;;;;;;;1.67;1.08;;;5.90;99.90;;;;;;5039032;22;20501;-85
2023/11/27 09:07:26;;;;;;;2.88;1.25;;;5.90;99.90;;;;;;5002903;28;20073;-85
2023/11/27 09:09:52;;;;;;;3.10;1.73;;;5.90;99.90;;;;;;5016670;28;20386;-85
2023/11/27 09:12:19;;;;;;;2.42;1.60;;;5.90;99.90;;;;;;5008562;28;20041;-85
2023/11/27 09:14:46;;;;;;;2.13;1.05;;;6.00;99.90;;;;;;5030110;28;20107;-85
2023/11/27 09:17:13;;;;;;;1.58;1.23;;;6.00;99.90;;;;;;5005249;28;20478;-85
2023/11/27 09:19:40;;;;;;;1.40;1.13;;;6.00;99.90;;;;;;5003626;28;20051;-85
2023/11/27 09:22:06;;;;;;;1.60;1.33;;;6.00;99.90;;;;;;5020168;28;20058;-85
2023/11/27 09:24:33;;;;;;;1.65;1.00;;;6.10;99.90;;;;;;5019493;28;20702;-85
2023/11/27 09:27:01;;;;;;;1.63;1.13;;;6.10;99.90;;;;;;5007945;28;20042;-85
2023/11/27 09:29:28;;;;;;;2.42;1.05;;;6.10;99.90;;;;;;5003749;28;20049;-85
2023/11/27 09:31:55;;;;;;;1.45;1.00;;;6.10;99.90;;;;;;5002341;28;20052;-85
2023/11/27 09:34:22;;;;;;;5.18;2.92;;;6.20;99.90;;;;;;5016031;28;20048;-85
2023/11/27 09:36:49;;;;;;;6.75;3.25;;;6.20;99.90;;;;;;5013932;28;20053;-85
2023/11/27 09:39:30;;;;;;;5.60;2.40;;;6.10;99.90;;;;;;5010562;28;20048;-85
2023/11/27 09:41:57;;;;;;;7.80;3.58;;;6.10;99.90;;;;;;5020495;28;20085;-86
2023/11/27 09:44:24;;;;;;;6.88;3.63;;;6.10;99.90;;;;;;5025637;28;20042;-85
2023/11/27 09:46:56;;;;;;;8.80;4.03;;;6.10;99.90;;;;;;5018876;28;20062;-86
2023/11/27 09:49:24;;;;;;;8.00;3.42;;;6.10;99.90;;;;;;5008503;28;20132;-84
2023/11/27 09:52:00;;;;;;;5.35;3.05;;;6.20;99.90;;;;;;5001024;28;20053;-83
2023/11/27 09:54:32;;;;;;;6.57;3.40;;;6.20;99.90;;;;;;5018878;28;20505;-86
2023/11/27 09:56:59;;;;;;;3.45;2.05;;;6.30;99.90;;;;;;4996867;28;20077;-84
2023/11/27 09:59:29;;;;;;;2.58;1.67;;;6.30;99.90;;;;;;5021136;28;20053;-83
2023/11/27 10:01:57;;;;;;;2.60;1.45;;;6.30;99.90;;;;;;5010063;28;20116;-82
2023/11/27 10:04:25;;;;;;;2.67;1.45;;;6.40;99.90;;;;;;5002264;28;20052;-86
2023/11/27 10:06:52;;;;;;;2.25;1.50;;;6.50;99.90;;;;;;5011100;28;20445;-83
2023/11/27 10:09:21;;;;;;;2.47;1.30;;;6.50;99.90;;;;;;5000586;28;20060;-84
2023/11/27 10:11:50;;;;;;;2.75;1.48;;;6.50;99.90;;;;;;5002803;28;20070;-84
2023/11/27 10:14:20;;;;;;;2.53;1.23;;;6.60;99.90;;;;;;5001188;28;20051;-84
2023/11/27 10:17:05;;;;;;;4.00;1.20;;;6.60;99.90;;;;;;5002679;28;20049;-83
2023/11/27 10:19:32;;;;;;;1.20;1.00;;;6.70;99.90;;;;;;4993006;28;20046;-86
2023/11/27 10:21:59;;;;;;;4.32;1.60;;;6.60;99.90;;;;;;5014125;28;20083;-84
2023/11/27 10:24:26;;;;;;;2.97;1.45;;;6.60;99.90;;;;;;5024087;28;20506;-85
2023/11/27 10:26:53;;;;;;;1.60;1.08;;;6.60;99.90;;;;;;5007366;28;20144;-83
2023/11/27 10:29:26;;;;;;;1.55;1.17;;;6.60;99.90;;;;;;5014247;28;20431;-83
2023/11/27 10:31:58;;;;;;;2.75;1.70;;;6.50;99.90;;;;;;5017186;28;20080;-85
2023/11/27 10:34:38;;;;;;;3.25;1.60;;;6.50;99.90;;;;;;5019310;28;20057;-84
2023/11/27 10:37:07;;;;;;;1.85;1.40;;;6.50;99.90;;;;;;5017278;28;20493;-85
2023/11/27 10:39:33;;;;;;;4.45;1.67;;;6.50;99.90;;;;;;5021734;28;20045;-84
2023/11/27 10:42:03;;;;;;;2.40;1.33;;;6.40;99.90;;;;;;5017630;28;20069;-85
2023/11/27 10:44:40;;;;;;;2.05;1.60;;;6.40;99.90;;;;;;5015750;28;20076;-84
2023/11/27 10:47:07;;;;;;;2.38;1.35;;;6.40;99.90;;;;;;4997580;28;20057;-84
2023/11/27 10:49:40;;;;;;;2.40;1.50;;;6.40;99.90;;;;;;5002820;28;20048;-83
2023/11/27 10:52:11;;;;;;;2.20;1.33;;;6.40;99.90;;;;;;5007786;28;20046;-85
2023/11/27 10:54:40;;;;;;;4.20;1.92;;;6.30;99.90;;;;;;5002403;28;20137;-86
2023/11/27 10:57:08;;;;;;;3.92;2.33;;;6.30;99.90;;;;;;5012445;28;20115;-85
2023/11/27 10:59:42;;;;;;;3.65;1.80;;;6.30;99.90;;;;;;5032518;28;20049;-85
2023/11/27 11:02:13;;;;;;;3.45;1.95;;;6.30;99.90;;;;;;5004989;28;20088;-85
2023/11/27 11:04:52;;;;;;;4.00;2.05;;;6.30;99.90;;;;;;5007826;28;20054;-84
2023/11/27 11:07:34;;;;;;;3.67;1.87;;;6.20;99.90;;;;;;5009452;28;20056;-85
2023/11/27 11:10:05;;;;;;;3.38;1.95;;;6.20;99.90;;;;;;5013306;28;20293;-84
2023/11/27 11:12:33;;;;;;;4.10;1.88;;;6.10;99.90;;;;;;5023763;28;20413;-83
2023/11/27 11:15:00;;;;;;;4.60;2.50;;;6.10;99.90;;;;;;5010333;28;20426;-84
2023/11/27 11:17:42;;;;;;;4.93;2.53;;;6.00;99.90;;;;;;5020754;28;20108;-84
2023/11/27 11:20:28;;;;;;;5.45;2.40;;;6.00;99.90;;;;;;5006566;28;20058;-84
2023/11/27 11:23:16;;;;;;;6.95;2.78;;;6.00;99.90;;;;;;5002057;28;20052;-84
2023/11/27 11:26:21;;;;;;;4.03;2.40;;;6.00;99.90;;;;;;5001283;28;20091;-84
2023/11/27 11:29:35;;;;;;;3.03;2.05;;;6.00;99.90;;;;;;5003118;28;20109;-85
2023/11/27 11:32:13;;;;;;;5.00;2.40;;;6.00;99.90;;;;;;5023942;28;20053;-84
2023/11/27 11:34:49;;;;;;;4.97;2.60;;;6.00;99.90;;;;;;5002061;28;20060;-83
2023/11/27 11:37:18;;;;;;;5.07;2.97;;;6.10;99.90;;;;;;5012787;28;20080;-85
2023/11/27 11:39:46;;;;;;;4.32;2.55;;;6.10;99.90;;;;;;5022699;28;20072;-85
2023/11/27 11:42:17;;;;;;;4.55;3.05;;;6.10;99.90;;;;;;5003456;28;20050;-84
2023/11/27 11:45:04;;;;;;;4.32;2.92;;;6.10;99.90;;;;;;5004226;28;20148;-85
2023/11/27 11:47:33;;;;;;;8.00;3.28;;;6.10;99.90;;;;;;4997336;28;20057;-83
2023/11/27 11:50:24;;;;;;;5.00;2.60;;;6.10;99.90;;;;;;5006174;28;20077;-84
2023/11/27 11:52:53;;;;;;;5.65;2.97;;;6.10;99.90;;;;;;5022225;28;20128;-84
2023/11/27 11:55:34;;;;;;;5.57;3.25;;;6.20;99.90;;;;;;5010556;28;20047;-84
2023/11/27 11:58:19;;;;;;;4.38;2.80;;;6.20;99.90;;;;;;5003276;28;20140;-85
2023/11/27 12:00:47;;;;;;;6.13;2.65;;;6.20;99.90;;;;;;5021458;28;20050;-84
2023/11/27 12:03:17;;;;;;;6.15;3.08;;;6.20;99.90;;;;;;5015898;28;20065;-82
2023/11/27 12:05:52;;;;;;;3.95;3.10;;;6.20;99.90;;;;;;5017299;28;20424;-84
2023/11/27 12:08:24;;;;;;;5.15;2.97;;;6.20;99.90;;;;;;5018359;28;20054;-85
2023/11/27 12:10:55;;;;;;;4.65;3.00;;;6.20;99.90;;;;;;5015110;28;20045;-84
2023/11/27 12:13:24;;;;;;;5.50;3.03;;;6.20;99.90;;;;;;5018829;28;20057;-84
2023/11/27 12:15:53;;;;;;;5.45;3.08;;;6.20;99.90;;;;;;5012331;28;20081;-84
2023/11/27 12:18:19;;;;;;;5.03;3.33;;;6.20;99.90;;;;;;5017457;28;20086;-84
2023/11/27 12:20:50;;;;;;;6.07;3.55;;;6.20;99.90;;;;;;5021045;28;20038;-84
2023/11/27 12:23:17;;;;;;;8.10;3.72;;;6.20;99.90;;;;;;5018022;28;20054;-84
2023/11/27 12:25:45;;;;;;;9.07;3.72;;;6.20;99.90;;;;;;5041327;28;20050;-84
2023/11/27 12:28:12;;;;;;;5.57;3.25;;;6.20;99.90;;;;;;5028477;28;20073;-83
2023/11/27 12:30:40;;;;;;;6.50;3.70;;;6.20;99.90;;;;;;5013778;28;20496;-84
2023/11/27 12:33:08;;;;;;;5.82;3.63;;;6.20;99.90;;;;;;5010243;28;20511;-84
2023/11/27 12:35:37;;;;;;;6.75;3.28;;;6.20;99.90;;;;;;4993085;28;20045;-85
2023/11/27 12:38:05;;;;;;;6.55;3.35;;;6.10;99.90;;;;;;5005795;28;20049;-83
2023/11/27 12:40:34;;;;;;;5.82;3.90;;;6.10;99.90;;;;;;5014008;28;20081;-84
2023/11/27 12:43:05;;;;;;;4.35;3.40;;;6.10;99.90;;;;;;5012127;28;20061;-84
2023/11/27 12:45:34;;;;;;;4.10;2.58;;;6.10;99.90;;;;;;5002392;28;20140;-83
2023/11/27 12:48:06;;;;;;;7.90;3.20;;;6.10;99.90;;;;;;5000804;28;20092;-84
2023/11/27 12:50:39;;;;;;;5.65;2.95;;;6.10;99.90;;;;;;5013676;28;20485;-84
2023/11/27 12:53:08;;;;;;;4.10;2.80;;;6.10;99.90;;;;;;5016173;28;20061;-84
2023/11/27 12:55:46;;;;;;;6.32;3.20;;;6.10;99.90;;;;;;5016474;28;20056;-85
2023/11/27 12:58:17;;;;;;;4.82;2.83;;;6.10;99.90;;;;;;5008965;28;20056;-83
2023/11/27 13:00:45;;;;;;;4.30;2.60;;;6.00;99.90;;;;;;5004682;28;20053;-85
2023/11/27 13:03:19;;;;;;;5.07;2.70;;;6.00;99.90;;;;;;5013547;28;20053;-83
2023/11/27 13:05:52;;;;;;;6.55;3.08;;;6.00;99.90;;;;;;5002330;28;20050;-84